createdAt,value
2023-04-01T00:00:50.998Z,10.90
2023-04-01T00:03:19.486Z,10.90
2023-04-01T00:05:49.468Z,10.90
2023-04-01T00:08:18.614Z,10.90
2023-04-01T00:10:46.757Z,10.90
2023-04-01T00:13:14.960Z,10.90
2023-04-01T00:15:42.926Z,10.90
2023-04-01T00:18:10.793Z,10.90
2023-04-01T00:20:38.643Z,10.90
2023-04-01T00:23:10.711Z,10.90
2023-04-01T00:25:38.714Z,10.90
2023-04-01T00:28:06.543Z,10.80
2023-04-01T00:30:36.751Z,10.90
2023-04-01T00:33:04.959Z,10.80
2023-04-01T00:35:33.502Z,10.80
2023-04-01T00:38:01.557Z,10.90
2023-04-01T00:40:32.548Z,10.90
2023-04-01T00:43:01.049Z,10.80
2023-04-01T00:45:35.923Z,10.80
2023-04-01T00:48:07.747Z,10.80
2023-04-01T00:50:37.537Z,10.80
2023-04-01T00:53:07.532Z,10.80
2023-04-01T00:55:41.383Z,10.80
2023-04-01T00:58:15.563Z,10.80
2023-04-01T01:00:44.684Z,10.80
2023-04-01T01:03:13.658Z,10.80
2023-04-01T01:06:04.010Z,10.80
2023-04-01T01:08:41.836Z,10.80
2023-04-01T01:11:14.193Z,10.80
2023-04-01T01:13:48.349Z,10.80
2023-04-01T01:16:21.454Z,10.80
2023-04-01T01:18:54.846Z,10.80
2023-04-01T01:21:51.844Z,10.70
2023-04-01T01:24:30.445Z,10.70
2023-04-01T01:27:12.721Z,10.70
2023-04-01T01:30:31.476Z,10.70
2023-04-01T01:33:17.705Z,10.70
2023-04-01T01:35:50.015Z,10.70
2023-04-01T01:38:20.298Z,10.60
2023-04-01T01:40:52.994Z,10.70
2023-04-01T01:43:24.622Z,10.70
2023-04-01T01:45:57.198Z,10.70
2023-04-01T01:48:26.682Z,10.70
2023-04-01T01:50:56.173Z,10.70
2023-04-01T01:53:24.420Z,10.70
2023-04-01T01:55:52.995Z,10.70
2023-04-01T01:58:24.439Z,10.70
2023-04-01T02:00:56.816Z,10.70
2023-04-01T02:03:27.443Z,10.70
2023-04-01T02:06:00.060Z,10.70
2023-04-01T02:08:32.800Z,10.70
2023-04-01T02:11:05.855Z,10.70
2023-04-01T02:13:39.970Z,10.70
2023-04-01T02:16:14.498Z,10.70
2023-04-01T02:18:45.394Z,10.70
2023-04-01T02:21:19.293Z,10.70
2023-04-01T02:23:48.774Z,10.70
2023-04-01T02:26:17.133Z,10.70
2023-04-01T02:28:48.587Z,10.70
2023-04-01T02:31:17.166Z,10.70
2023-04-01T02:33:46.768Z,10.70
2023-04-01T02:36:17.532Z,10.70
2023-04-01T02:38:49.596Z,10.70
2023-04-01T02:41:17.477Z,10.60
2023-04-01T02:43:45.337Z,10.70
2023-04-01T02:46:13.477Z,10.60
2023-04-01T02:48:41.305Z,10.70
2023-04-01T02:51:10.048Z,10.60
2023-04-01T02:53:39.212Z,10.60
2023-04-01T02:56:07.204Z,10.60
2023-04-01T02:58:35.042Z,10.60
2023-04-01T03:01:03.456Z,10.60
2023-04-01T03:03:31.382Z,10.60
2023-04-01T03:06:01.135Z,10.60
2023-04-01T03:08:28.991Z,10.70
2023-04-01T03:10:59.603Z,10.70
2023-04-01T03:13:28.531Z,10.70
2023-04-01T03:15:56.819Z,10.60
2023-04-01T03:18:24.678Z,10.70
2023-04-01T03:20:52.756Z,10.70
2023-04-01T03:23:22.106Z,10.70
2023-04-01T03:25:50.846Z,10.70
2023-04-01T03:28:20.263Z,10.70
2023-04-01T03:30:48.182Z,10.70
2023-04-01T03:33:16.039Z,10.70
2023-04-01T03:35:43.943Z,10.70
2023-04-01T03:38:12.061Z,10.60
2023-04-01T03:40:43.832Z,10.70
2023-04-01T03:43:11.798Z,10.60
2023-04-01T03:45:46.952Z,10.60
2023-04-01T03:48:15.562Z,10.70
2023-04-01T03:50:43.931Z,10.70
2023-04-01T03:53:12.210Z,10.60
2023-04-01T03:55:40.752Z,10.60
2023-04-01T03:58:09.789Z,10.60
2023-04-01T04:00:37.886Z,10.60
2023-04-01T04:03:08.925Z,10.60
2023-04-01T04:05:36.938Z,10.60
2023-04-01T04:08:05.117Z,10.60
2023-04-01T04:10:32.942Z,10.60
2023-04-01T04:13:00.976Z,10.60
2023-04-01T04:15:28.732Z,10.70
2023-04-01T04:17:56.525Z,10.60
2023-04-01T04:20:26.946Z,10.70
2023-04-01T04:22:54.761Z,10.70
2023-04-01T04:25:22.601Z,10.60
2023-04-01T04:27:50.485Z,10.60
2023-04-01T04:30:18.607Z,10.70
2023-04-01T04:32:46.616Z,10.60
2023-04-01T04:35:14.407Z,10.60
2023-04-01T04:37:43.631Z,10.60
2023-04-01T04:40:11.672Z,10.60
2023-04-01T04:42:39.518Z,10.60
2023-04-01T04:45:08.531Z,10.60
2023-04-01T04:47:36.412Z,10.60
2023-04-01T04:50:04.260Z,10.60
2023-04-01T04:52:32.096Z,10.60
2023-04-01T04:55:01.520Z,10.60
2023-04-01T04:57:29.691Z,10.60
2023-04-01T04:59:57.667Z,10.50
2023-04-01T05:02:25.612Z,10.60
2023-04-01T05:04:53.753Z,10.60
2023-04-01T05:07:21.582Z,10.60
2023-04-01T05:09:49.430Z,10.60
2023-04-01T05:12:18.557Z,10.60
2023-04-01T05:14:46.482Z,10.60
2023-04-01T05:17:15.566Z,10.60
2023-04-01T05:19:43.659Z,10.60
2023-04-01T05:22:11.430Z,10.60
2023-04-01T05:24:39.347Z,10.60
2023-04-01T05:27:07.380Z,10.60
2023-04-01T05:29:36.740Z,10.60
2023-04-01T05:32:04.844Z,10.60
2023-04-01T05:34:32.946Z,10.60
2023-04-01T05:37:01.094Z,10.60
2023-04-01T05:39:29.492Z,10.60
2023-04-01T05:41:57.465Z,10.60
2023-04-01T05:44:25.668Z,10.60
2023-04-01T05:46:54.840Z,10.60
2023-04-01T05:49:22.776Z,10.60
2023-04-01T05:51:50.544Z,10.60
2023-04-01T05:54:18.447Z,10.50
2023-04-01T05:56:47.661Z,10.60
2023-04-01T05:59:16.596Z,10.60
2023-04-01T06:01:45.053Z,10.60
2023-04-01T06:04:17.478Z,10.60
2023-04-01T06:06:46.378Z,10.60
2023-04-01T06:09:17.542Z,10.50
2023-04-01T06:11:59.688Z,10.50
2023-04-01T06:14:36.578Z,10.60
2023-04-01T06:17:19.739Z,10.60
2023-04-01T06:19:57.856Z,10.60
2023-04-01T06:22:44.281Z,10.60
2023-04-01T06:25:47.865Z,10.60
2023-04-01T06:29:02.398Z,10.60
2023-04-01T06:31:47.757Z,10.60
2023-04-01T06:34:39.174Z,10.50
2023-04-01T06:37:22.865Z,10.30
2023-04-01T06:40:08.471Z,10.10
2023-04-01T06:42:56.361Z,10.10
2023-04-01T06:45:34.112Z,10.00
2023-04-01T06:48:26.752Z,9.80
2023-04-01T06:51:01.294Z,9.70
2023-04-01T06:53:36.896Z,9.60
2023-04-01T06:56:08.821Z,9.50
2023-04-01T06:58:40.733Z,9.50
2023-04-01T07:01:12.770Z,9.40
2023-04-01T07:03:45.553Z,9.40
2023-04-01T07:06:26.212Z,9.30
2023-04-01T07:08:57.800Z,9.20
2023-04-01T07:11:28.908Z,9.20
2023-04-01T07:14:01.320Z,9.10
2023-04-01T07:16:32.481Z,9.10
2023-04-01T07:19:04.121Z,9.00
2023-04-01T07:21:37.074Z,9.00
2023-04-01T07:24:13.470Z,9.00
2023-04-01T07:26:41.335Z,9.00
2023-04-01T07:29:13.367Z,9.00
2023-04-01T07:32:01.958Z,8.90
2023-04-01T07:34:34.462Z,8.90
2023-04-01T07:37:08.814Z,8.90
2023-04-01T07:39:47.802Z,8.90
2023-04-01T07:42:26.003Z,8.90
2023-04-01T07:45:01.225Z,8.80
2023-04-01T07:47:43.447Z,8.70
2023-04-01T07:50:20.290Z,8.70
2023-04-01T07:52:54.073Z,8.70
2023-04-01T07:55:27.419Z,8.70
2023-04-01T07:58:01.023Z,8.60
2023-04-01T08:00:36.448Z,8.60
2023-04-01T08:03:20.840Z,8.60
2023-04-01T08:05:57.318Z,8.60
2023-04-01T08:08:37.186Z,8.50
2023-04-01T08:11:14.878Z,8.60
2023-04-01T08:13:48.170Z,8.60
2023-04-01T08:16:22.728Z,8.60
2023-04-01T08:18:59.669Z,8.60
2023-04-01T08:21:30.703Z,8.50
2023-04-01T08:24:02.573Z,8.40
2023-04-01T08:26:41.220Z,8.40
2023-04-01T08:29:14.108Z,8.30
2023-04-01T08:31:50.851Z,8.30
2023-04-01T08:34:23.280Z,8.30
2023-04-01T08:36:56.359Z,8.30
2023-04-01T08:39:31.253Z,8.30
2023-04-01T08:42:20.791Z,8.20
2023-04-01T08:45:09.300Z,8.20
2023-04-01T08:47:48.692Z,8.20
2023-04-01T08:50:43.223Z,8.10
2023-04-01T08:53:23.090Z,8.10
2023-04-01T08:56:05.573Z,8.10
2023-04-01T08:59:00.981Z,8.00
2023-04-01T09:01:44.798Z,8.10
2023-04-01T09:04:27.881Z,8.10
2023-04-01T09:07:12.942Z,8.20
2023-04-01T09:10:16.571Z,8.20
2023-04-01T09:13:08.154Z,8.20
2023-04-01T09:15:56.310Z,8.30
2023-04-01T09:18:47.455Z,8.30
2023-04-01T09:21:48.610Z,8.20
2023-04-01T09:24:33.531Z,8.20
2023-04-01T09:27:12.606Z,8.20
2023-04-01T09:30:10.803Z,8.20
2023-04-01T09:33:08.890Z,8.20
2023-04-01T09:35:45.602Z,8.20
2023-04-01T09:38:23.775Z,8.20
2023-04-01T09:40:58.313Z,8.20
2023-04-01T09:43:31.904Z,8.20
2023-04-01T09:46:18.672Z,8.20
2023-04-01T09:49:11.556Z,8.20
2023-04-01T09:51:47.207Z,8.20
2023-04-01T09:54:26.624Z,8.20
2023-04-01T09:57:26.562Z,8.20
2023-04-01T10:00:24.074Z,8.30
2023-04-01T10:03:27.692Z,8.30
2023-04-01T10:06:47.429Z,8.30
2023-04-01T10:10:01.839Z,8.30
2023-04-01T10:12:57.345Z,8.30
2023-04-01T10:15:51.308Z,8.30
2023-04-01T10:19:04.007Z,8.30
2023-04-01T10:22:06.943Z,8.30
2023-04-01T10:25:22.101Z,8.20
2023-04-01T10:28:07.131Z,8.20
2023-04-01T10:31:02.796Z,8.20
2023-04-01T10:33:56.281Z,8.30
2023-04-01T10:36:45.099Z,8.30
2023-04-01T10:39:45.605Z,8.30
2023-04-01T10:42:51.216Z,8.20
2023-04-01T10:45:58.774Z,8.20
2023-04-01T10:48:55.656Z,8.30
2023-04-01T10:51:53.772Z,8.30
2023-04-01T10:54:38.386Z,8.30
2023-04-01T10:57:29.310Z,8.30
2023-04-01T11:00:20.783Z,8.30
2023-04-01T11:03:27.756Z,8.20
2023-04-01T11:06:34.849Z,8.10
2023-04-01T11:09:40.868Z,8.10
2023-04-01T11:13:06.912Z,8.00
2023-04-01T11:16:20.503Z,8.00
2023-04-01T11:19:11.346Z,8.00
2023-04-01T11:22:30.611Z,7.90
2023-04-01T11:25:22.741Z,7.90
2023-04-01T11:28:21.180Z,8.00
2023-04-01T11:31:06.241Z,8.00
2023-04-01T11:33:39.502Z,8.00
2023-04-01T11:36:26.993Z,8.00
2023-04-01T11:39:05.325Z,8.00
2023-04-01T11:41:42.829Z,8.00
2023-04-01T11:44:19.832Z,7.90
2023-04-01T11:47:21.211Z,7.90
2023-04-01T11:49:57.779Z,7.90
2023-04-01T11:52:45.408Z,7.90
2023-04-01T11:55:30.601Z,8.00
2023-04-01T11:58:21.276Z,7.90
2023-04-01T12:01:08.687Z,8.00
2023-04-01T12:03:52.374Z,8.10
2023-04-01T12:06:32.146Z,8.20
2023-04-01T12:09:06.838Z,8.30
2023-04-01T12:11:41.837Z,8.30
2023-04-01T12:14:17.840Z,8.30
2023-04-01T12:16:54.939Z,8.30
2023-04-01T12:19:35.989Z,8.20
2023-04-01T12:22:30.846Z,8.20
2023-04-01T12:25:14.920Z,8.10
2023-04-01T12:27:52.477Z,8.00
2023-04-01T12:30:39.010Z,8.00
2023-04-01T12:33:43.824Z,7.90
2023-04-01T12:36:27.864Z,8.00
2023-04-01T12:39:25.176Z,8.00
2023-04-01T12:42:01.180Z,7.90
2023-04-01T12:44:51.905Z,7.80
2023-04-01T12:47:41.016Z,7.70
2023-04-01T12:50:23.602Z,7.60
2023-04-01T12:53:09.103Z,7.60
2023-04-01T12:55:45.412Z,7.70
2023-04-01T12:58:37.063Z,7.70
2023-04-01T13:01:40.618Z,7.70
2023-04-01T13:04:34.087Z,7.60
2023-04-01T13:07:22.046Z,7.60
2023-04-01T13:09:58.484Z,7.60
2023-04-01T13:13:05.113Z,7.50
2023-04-01T13:15:39.210Z,7.60
2023-04-01T13:18:20.363Z,7.50
2023-04-01T13:20:54.575Z,7.50
2023-04-01T13:23:34.971Z,7.50
2023-04-01T13:26:14.743Z,7.50
2023-04-01T13:28:48.639Z,7.60
2023-04-01T13:31:43.166Z,7.50
2023-04-01T13:34:25.329Z,7.50
2023-04-01T13:37:05.206Z,7.50
2023-04-01T13:39:49.562Z,7.50
2023-04-01T13:42:26.040Z,7.50
2023-04-01T13:44:58.778Z,7.60
2023-04-01T13:47:42.767Z,7.60
2023-04-01T13:50:36.406Z,7.60
2023-04-01T13:53:28.750Z,7.50
2023-04-01T13:56:04.307Z,7.40
2023-04-01T13:58:56.731Z,7.40
2023-04-01T14:01:33.494Z,7.30
2023-04-01T14:04:30.467Z,7.30
2023-04-01T14:07:10.162Z,7.20
2023-04-01T14:09:57.253Z,7.20
2023-04-01T14:12:32.515Z,7.10
2023-04-01T14:15:23.030Z,7.10
2023-04-01T14:18:02.776Z,7.00
2023-04-01T14:20:41.680Z,7.00
2023-04-01T14:23:33.171Z,7.00
2023-04-01T14:26:13.641Z,7.00
2023-04-01T14:28:48.492Z,7.00
2023-04-01T14:31:47.004Z,7.00
2023-04-01T14:34:28.910Z,7.00
2023-04-01T14:37:14.122Z,7.00
2023-04-01T14:40:19.933Z,7.00
2023-04-01T14:43:01.327Z,7.10
2023-04-01T14:45:52.733Z,7.20
2023-04-01T14:48:31.017Z,7.20
2023-04-01T14:51:06.661Z,7.30
2023-04-01T14:53:39.840Z,7.30
2023-04-01T14:56:07.924Z,7.30
2023-04-01T14:58:45.666Z,7.20
2023-04-01T15:01:27.866Z,7.20
2023-04-01T15:04:06.130Z,7.20
2023-04-01T15:06:47.758Z,7.10
2023-04-01T15:09:25.864Z,7.00
2023-04-01T15:12:05.811Z,7.00
2023-04-01T15:15:05.295Z,6.90
2023-04-01T15:17:53.755Z,6.90
2023-04-01T15:20:44.826Z,6.80
2023-04-01T15:23:23.944Z,6.80
2023-04-01T15:26:23.850Z,6.80
2023-04-01T15:29:17.435Z,6.80
2023-04-01T15:31:51.437Z,6.80
2023-04-01T15:34:27.469Z,6.80
2023-04-01T15:37:02.020Z,6.80
2023-04-01T15:39:45.977Z,6.80
2023-04-01T15:42:26.142Z,6.80
2023-04-01T15:45:05.829Z,6.70
2023-04-01T15:47:41.758Z,6.60
2023-04-01T15:50:36.593Z,6.60
2023-04-01T15:53:19.854Z,6.50
2023-04-01T15:55:53.420Z,6.50
2023-04-01T15:58:43.293Z,6.50
2023-04-01T16:01:24.478Z,6.40
2023-04-01T16:03:59.194Z,6.40
2023-04-01T16:06:43.822Z,6.40
2023-04-01T16:09:30.263Z,6.30
2023-04-01T16:12:05.554Z,6.30
2023-04-01T16:14:43.949Z,6.30
2023-04-01T16:17:33.850Z,6.20
2023-04-01T16:20:10.047Z,6.20
2023-04-01T16:22:41.940Z,6.20
2023-04-01T16:25:22.394Z,6.10
2023-04-01T16:27:58.669Z,6.10
2023-04-01T16:30:37.847Z,6.10
2023-04-01T16:33:13.573Z,6.10
2023-04-01T16:35:47.934Z,6.00
2023-04-01T16:38:24.679Z,6.00
2023-04-01T16:41:07.588Z,5.90
2023-04-01T16:43:44.780Z,5.90
2023-04-01T16:46:40.442Z,5.90
2023-04-01T16:49:34.105Z,5.90
2023-04-01T16:52:16.429Z,5.90
2023-04-01T16:54:52.803Z,5.90
2023-04-01T16:57:25.088Z,5.80
2023-04-01T17:00:02.022Z,5.80
2023-04-01T17:02:36.026Z,5.80
2023-04-01T17:05:10.062Z,5.80
2023-04-01T17:07:48.865Z,5.80
2023-04-01T17:10:30.406Z,5.80
2023-04-01T17:13:18.044Z,5.70
2023-04-01T17:15:56.374Z,5.70
2023-04-01T17:18:34.737Z,5.70
2023-04-01T17:21:09.779Z,5.60
2023-04-01T17:23:46.191Z,5.60
2023-04-01T17:26:34.882Z,5.60
2023-04-01T17:29:15.888Z,5.50
2023-04-01T17:31:51.693Z,5.50
2023-04-01T17:34:39.676Z,5.40
2023-04-01T17:37:23.843Z,5.40
2023-04-01T17:40:03.054Z,5.40
2023-04-01T17:42:41.255Z,5.40
2023-04-01T17:45:18.737Z,5.30
2023-04-01T17:47:57.007Z,5.30
2023-04-01T17:50:36.246Z,5.30
2023-04-01T17:53:16.337Z,5.20
2023-04-01T17:55:52.443Z,5.20
2023-04-01T17:58:22.405Z,5.20
2023-04-01T18:01:13.484Z,5.20
2023-04-01T18:04:05.911Z,5.20
2023-04-01T18:06:43.126Z,5.10
2023-04-01T18:09:21.237Z,5.20
2023-04-01T18:12:01.425Z,5.20
2023-04-01T18:14:52.074Z,5.20
2023-04-01T18:17:26.025Z,5.20
2023-04-01T18:20:04.995Z,5.20
2023-04-01T18:22:43.007Z,5.20
2023-04-01T18:25:20.341Z,5.20
2023-04-01T18:27:52.408Z,5.20
2023-04-01T18:30:24.127Z,5.30
2023-04-01T18:32:56.581Z,5.30
2023-04-01T18:35:31.840Z,5.40
2023-04-01T18:38:08.457Z,5.40
2023-04-01T18:40:40.192Z,5.40
2023-04-01T18:43:16.826Z,5.40
2023-04-01T18:45:52.015Z,5.40
2023-04-01T18:56:25.098Z,5.50
2023-04-01T18:59:00.172Z,5.50
2023-04-01T19:01:39.054Z,5.50
2023-04-01T19:04:18.860Z,5.50
2023-04-01T19:06:50.391Z,5.50
2023-04-01T19:09:21.756Z,5.50
2023-04-01T19:12:21.788Z,5.50
2023-04-01T19:15:01.691Z,5.40
2023-04-01T19:17:44.271Z,5.40
2023-04-01T19:20:20.038Z,5.30
2023-04-01T19:23:09.622Z,5.30
2023-04-01T19:25:42.749Z,5.30
2023-04-01T19:28:34.971Z,5.20
2023-04-01T19:31:13.526Z,5.20
2023-04-01T19:33:54.665Z,5.20
2023-04-01T19:36:31.764Z,5.20
2023-04-01T19:39:14.114Z,5.20
2023-04-01T19:41:49.430Z,5.20
2023-04-01T19:44:32.492Z,5.20
2023-04-01T19:47:07.616Z,5.20
2023-04-01T19:49:50.248Z,5.20
2023-04-01T19:52:25.230Z,5.10
2023-04-01T19:55:00.796Z,5.10
2023-04-01T19:57:39.337Z,5.10
2023-04-01T20:00:18.132Z,5.10
2023-04-01T20:03:03.539Z,5.00
2023-04-01T20:05:52.885Z,5.00
2023-04-01T20:08:30.955Z,5.00
2023-04-01T20:11:10.038Z,4.90
2023-04-01T20:13:48.358Z,4.90
2023-04-01T20:16:18.305Z,4.80
2023-04-01T20:18:53.704Z,4.70
2023-04-01T20:21:36.813Z,4.70
2023-04-01T20:24:16.857Z,4.70
2023-04-01T20:26:50.805Z,4.60
2023-04-01T20:29:37.462Z,4.50
2023-04-01T20:32:21.138Z,4.40
2023-04-01T20:35:14.858Z,4.40
2023-04-01T20:37:50.992Z,4.30
2023-04-01T20:40:37.223Z,4.30
2023-04-01T20:43:26.792Z,4.20
2023-04-01T20:46:00.407Z,4.10
2023-04-01T20:49:00.255Z,4.10
2023-04-01T20:51:31.810Z,4.00
2023-04-01T20:54:12.683Z,4.00
2023-04-01T20:56:50.158Z,4.00
2023-04-01T20:59:38.603Z,3.90
2023-04-01T21:02:18.707Z,3.90
2023-04-01T21:05:13.473Z,3.90
2023-04-01T21:07:44.034Z,3.80
2023-04-01T21:10:30.067Z,3.80
2023-04-01T21:13:06.355Z,3.80
2023-04-01T21:15:45.922Z,3.70
2023-04-01T21:18:29.654Z,3.70
2023-04-01T21:21:14.908Z,3.70
2023-04-01T21:23:56.255Z,3.70
2023-04-01T21:26:37.556Z,3.70
2023-04-01T21:29:28.396Z,3.60
2023-04-01T21:32:06.898Z,3.60
2023-04-01T21:34:46.103Z,3.60
2023-04-01T21:37:42.369Z,3.50
2023-04-01T21:40:43.571Z,3.50
2023-04-01T21:43:46.480Z,3.50
2023-04-01T21:46:40.998Z,3.40
2023-04-01T21:49:33.488Z,3.40
2023-04-01T21:52:31.672Z,3.40
2023-04-01T21:55:36.983Z,3.40
2023-04-01T21:58:28.979Z,3.30
2023-04-01T22:01:06.291Z,3.30
2023-04-01T22:04:05.326Z,3.30
2023-04-01T22:06:39.752Z,3.30
2023-04-01T22:09:20.017Z,3.20
2023-04-01T22:12:02.406Z,3.20
2023-04-01T22:14:36.498Z,3.20
2023-04-01T22:17:14.513Z,3.20
2023-04-01T22:19:51.909Z,3.20
2023-04-01T22:22:23.722Z,3.10
2023-04-01T22:25:02.055Z,3.10
2023-04-01T22:27:35.491Z,3.10
2023-04-01T22:30:16.290Z,3.10
2023-04-01T22:32:47.104Z,3.00
2023-04-01T22:35:29.660Z,3.00
2023-04-01T22:38:04.910Z,3.00
2023-04-01T22:40:41.684Z,3.00
2023-04-01T22:43:13.566Z,3.00
2023-04-01T22:46:09.530Z,3.00
2023-04-01T22:48:42.033Z,3.00
2023-04-01T22:51:16.038Z,2.90
2023-04-01T22:53:59.408Z,2.90
2023-04-01T22:56:32.488Z,2.90
2023-04-01T22:59:08.255Z,2.90
2023-04-01T23:01:41.581Z,2.80
2023-04-01T23:04:14.513Z,2.80
2023-04-01T23:06:46.266Z,2.80
2023-04-01T23:09:20.870Z,2.80
2023-04-01T23:11:53.740Z,2.80
2023-04-01T23:14:51.680Z,2.80
2023-04-01T23:17:33.937Z,2.80
2023-04-01T23:20:13.398Z,2.70
2023-04-01T23:22:52.233Z,2.70
2023-04-01T23:25:30.495Z,2.70
2023-04-01T23:28:17.726Z,2.70
2023-04-01T23:30:52.321Z,2.70
2023-04-01T23:33:28.403Z,2.70
2023-04-01T23:36:05.891Z,2.70
2023-04-01T23:38:36.697Z,2.60
2023-04-01T23:41:06.231Z,2.60
2023-04-01T23:43:39.013Z,2.60
2023-04-01T23:46:09.357Z,2.60
2023-04-01T23:48:39.981Z,2.60
2023-04-01T23:51:16.600Z,2.60
2023-04-01T23:53:47.393Z,2.60
2023-04-01T23:56:17.901Z,2.60
2023-04-01T23:58:53.313Z,2.60
